sensor_id;sensor_type;location;lat;lon;timestamp;temperature;humidity
68842;SHT35;55849;48.482;2.332;2022-12-18T00:01:39;1.92;62.91
68842;SHT35;55849;48.482;2.332;2022-12-18T00:04:42;1.92;62.99
68842;SHT35;55849;48.482;2.332;2022-12-18T00:07:43;1.88;63.06
68842;SHT35;55849;48.482;2.332;2022-12-18T00:10:45;1.92;63.05
68842;SHT35;55849;48.482;2.332;2022-12-18T00:13:48;1.89;62.91
68842;SHT35;55849;48.482;2.332;2022-12-18T00:16:49;1.86;62.89
68842;SHT35;55849;48.482;2.332;2022-12-18T00:19:52;1.86;62.86
68842;SHT35;55849;48.482;2.332;2022-12-18T00:22:54;1.85;62.60
68842;SHT35;55849;48.482;2.332;2022-12-18T00:25:58;1.82;62.43
68842;SHT35;55849;48.482;2.332;2022-12-18T00:29:02;1.79;62.45
68842;SHT35;55849;48.482;2.332;2022-12-18T00:32:04;1.77;62.37
68842;SHT35;55849;48.482;2.332;2022-12-18T00:35:08;1.74;62.34
68842;SHT35;55849;48.482;2.332;2022-12-18T00:38:09;1.73;62.01
68842;SHT35;55849;48.482;2.332;2022-12-18T00:41:13;1.67;61.95
68842;SHT35;55849;48.482;2.332;2022-12-18T00:44:35;1.63;61.83
68842;SHT35;55849;48.482;2.332;2022-12-18T00:47:35;1.61;61.92
68842;SHT35;55849;48.482;2.332;2022-12-18T00:50:38;1.60;61.92
68842;SHT35;55849;48.482;2.332;2022-12-18T00:53:40;1.56;62.04
68842;SHT35;55849;48.482;2.332;2022-12-18T00:56:42;1.54;62.23
68842;SHT35;55849;48.482;2.332;2022-12-18T00:59:43;1.51;61.90
68842;SHT35;55849;48.482;2.332;2022-12-18T01:02:45;1.48;62.12
68842;SHT35;55849;48.482;2.332;2022-12-18T01:05:48;1.46;61.96
68842;SHT35;55849;48.482;2.332;2022-12-18T01:08:49;1.44;61.70
68842;SHT35;55849;48.482;2.332;2022-12-18T01:11:51;1.37;61.39
68842;SHT35;55849;48.482;2.332;2022-12-18T01:14:53;1.35;61.33
68842;SHT35;55849;48.482;2.332;2022-12-18T01:17:55;1.32;61.20
68842;SHT35;55849;48.482;2.332;2022-12-18T01:20:58;1.30;60.95
68842;SHT35;55849;48.482;2.332;2022-12-18T01:23:59;1.22;60.92
68842;SHT35;55849;48.482;2.332;2022-12-18T01:27:01;1.23;60.70
68842;SHT35;55849;48.482;2.332;2022-12-18T01:30:03;1.19;60.59
68842;SHT35;55849;48.482;2.332;2022-12-18T01:33:05;1.13;60.67
68842;SHT35;55849;48.482;2.332;2022-12-18T01:36:14;1.11;60.33
68842;SHT35;55849;48.482;2.332;2022-12-18T01:39:16;1.06;60.45
68842;SHT35;55849;48.482;2.332;2022-12-18T01:42:17;1.04;60.49
68842;SHT35;55849;48.482;2.332;2022-12-18T01:45:26;1.01;60.53
68842;SHT35;55849;48.482;2.332;2022-12-18T01:48:28;0.96;60.37
68842;SHT35;55849;48.482;2.332;2022-12-18T01:51:31;0.98;60.33
68842;SHT35;55849;48.482;2.332;2022-12-18T01:54:32;0.91;60.16
68842;SHT35;55849;48.482;2.332;2022-12-18T01:57:35;0.88;60.09
68842;SHT35;55849;48.482;2.332;2022-12-18T02:00:37;0.87;60.01
68842;SHT35;55849;48.482;2.332;2022-12-18T02:03:41;0.83;59.97
68842;SHT35;55849;48.482;2.332;2022-12-18T02:06:45;0.83;59.95
68842;SHT35;55849;48.482;2.332;2022-12-18T02:09:52;0.78;60.00
68842;SHT35;55849;48.482;2.332;2022-12-18T02:13:02;0.81;60.24
68842;SHT35;55849;48.482;2.332;2022-12-18T02:16:14;0.80;60.01
68842;SHT35;55849;48.482;2.332;2022-12-18T02:19:34;0.77;59.83
68842;SHT35;55849;48.482;2.332;2022-12-18T02:22:45;0.73;59.68
68842;SHT35;55849;48.482;2.332;2022-12-18T02:26:07;0.69;59.64
68842;SHT35;55849;48.482;2.332;2022-12-18T02:29:13;0.66;59.68
68842;SHT35;55849;48.482;2.332;2022-12-18T02:32:20;0.63;59.71
68842;SHT35;55849;48.482;2.332;2022-12-18T02:35:26;0.61;59.49
68842;SHT35;55849;48.482;2.332;2022-12-18T02:38:30;0.59;59.48
68842;SHT35;55849;48.482;2.332;2022-12-18T02:41:34;0.56;59.34
68842;SHT35;55849;48.482;2.332;2022-12-18T02:44:43;0.53;59.25
68842;SHT35;55849;48.482;2.332;2022-12-18T02:47:48;0.48;59.28
68842;SHT35;55849;48.482;2.332;2022-12-18T02:50:56;0.45;59.27
68842;SHT35;55849;48.482;2.332;2022-12-18T02:54:05;0.41;59.06
68842;SHT35;55849;48.482;2.332;2022-12-18T02:57:16;0.38;58.98
68842;SHT35;55849;48.482;2.332;2022-12-18T03:00:22;0.36;58.96
68842;SHT35;55849;48.482;2.332;2022-12-18T03:03:29;0.30;59.09
68842;SHT35;55849;48.482;2.332;2022-12-18T03:06:35;0.29;59.00
68842;SHT35;55849;48.482;2.332;2022-12-18T03:09:42;0.29;59.04
68842;SHT35;55849;48.482;2.332;2022-12-18T03:12:52;0.24;59.14
68842;SHT35;55849;48.482;2.332;2022-12-18T03:15:56;0.25;59.44
68842;SHT35;55849;48.482;2.332;2022-12-18T03:19:01;0.22;59.24
68842;SHT35;55849;48.482;2.332;2022-12-18T03:22:07;0.21;59.11
68842;SHT35;55849;48.482;2.332;2022-12-18T03:25:11;0.18;59.22
68842;SHT35;55849;48.482;2.332;2022-12-18T03:28:21;0.18;59.60
68842;SHT35;55849;48.482;2.332;2022-12-18T03:31:26;0.15;59.23
68842;SHT35;55849;48.482;2.332;2022-12-18T03:34:31;0.12;59.47
68842;SHT35;55849;48.482;2.332;2022-12-18T03:37:34;0.15;59.69
68842;SHT35;55849;48.482;2.332;2022-12-18T03:40:43;0.14;59.39
68842;SHT35;55849;48.482;2.332;2022-12-18T03:43:52;0.15;59.18
68842;SHT35;55849;48.482;2.332;2022-12-18T03:47:03;0.14;59.34
68842;SHT35;55849;48.482;2.332;2022-12-18T03:50:11;0.12;59.09
68842;SHT35;55849;48.482;2.332;2022-12-18T03:53:23;0.09;59.02
68842;SHT35;55849;48.482;2.332;2022-12-18T03:56:30;0.05;58.90
68842;SHT35;55849;48.482;2.332;2022-12-18T03:59:35;0.04;58.83
68842;SHT35;55849;48.482;2.332;2022-12-18T04:02:43;0.02;58.77
68842;SHT35;55849;48.482;2.332;2022-12-18T04:05:47;0.00;58.88
68842;SHT35;55849;48.482;2.332;2022-12-18T04:08:51;-0.02;58.90
68842;SHT35;55849;48.482;2.332;2022-12-18T04:11:52;-0.03;59.00
68842;SHT35;55849;48.482;2.332;2022-12-18T04:14:56;-0.05;59.08
68842;SHT35;55849;48.482;2.332;2022-12-18T04:17:57;-0.05;59.10
68842;SHT35;55849;48.482;2.332;2022-12-18T04:20:59;-0.06;59.16
68842;SHT35;55849;48.482;2.332;2022-12-18T04:24:00;-0.06;59.34
68842;SHT35;55849;48.482;2.332;2022-12-18T04:27:02;-0.06;59.53
68842;SHT35;55849;48.482;2.332;2022-12-18T04:30:07;-0.06;59.59
68842;SHT35;55849;48.482;2.332;2022-12-18T04:33:09;-0.05;59.36
68842;SHT35;55849;48.482;2.332;2022-12-18T04:36:11;-0.07;59.06
68842;SHT35;55849;48.482;2.332;2022-12-18T04:39:13;-0.06;58.94
68842;SHT35;55849;48.482;2.332;2022-12-18T04:42:15;-0.10;58.82
68842;SHT35;55849;48.482;2.332;2022-12-18T04:45:18;-0.14;59.02
68842;SHT35;55849;48.482;2.332;2022-12-18T04:48:20;-0.14;58.83
68842;SHT35;55849;48.482;2.332;2022-12-18T04:51:22;-0.17;58.76
68842;SHT35;55849;48.482;2.332;2022-12-18T04:54:23;-0.20;58.82
68842;SHT35;55849;48.482;2.332;2022-12-18T04:57:25;-0.20;58.72
68842;SHT35;55849;48.482;2.332;2022-12-18T05:00:28;-0.21;58.68
68842;SHT35;55849;48.482;2.332;2022-12-18T05:03:30;-0.24;58.78
68842;SHT35;55849;48.482;2.332;2022-12-18T05:06:32;-0.23;58.73
68842;SHT35;55849;48.482;2.332;2022-12-18T05:09:33;-0.24;58.76
68842;SHT35;55849;48.482;2.332;2022-12-18T05:12:35;-0.26;58.81
68842;SHT35;55849;48.482;2.332;2022-12-18T05:15:58;-0.28;59.08
68842;SHT35;55849;48.482;2.332;2022-12-18T05:19:00;-0.30;58.94
68842;SHT35;55849;48.482;2.332;2022-12-18T05:22:02;-0.28;59.04
68842;SHT35;55849;48.482;2.332;2022-12-18T05:25:04;-0.30;59.35
68842;SHT35;55849;48.482;2.332;2022-12-18T05:28:06;-0.30;59.31
68842;SHT35;55849;48.482;2.332;2022-12-18T05:31:09;-0.30;59.18
68842;SHT35;55849;48.482;2.332;2022-12-18T05:34:11;-0.33;59.38
68842;SHT35;55849;48.482;2.332;2022-12-18T05:37:13;-0.31;59.45
68842;SHT35;55849;48.482;2.332;2022-12-18T05:40:14;-0.34;59.33
68842;SHT35;55849;48.482;2.332;2022-12-18T05:43:17;-0.31;59.22
68842;SHT35;55849;48.482;2.332;2022-12-18T05:46:20;-0.33;59.35
68842;SHT35;55849;48.482;2.332;2022-12-18T05:49:22;-0.34;59.35
68842;SHT35;55849;48.482;2.332;2022-12-18T05:52:24;-0.31;59.31
68842;SHT35;55849;48.482;2.332;2022-12-18T05:55:26;-0.33;59.30
68842;SHT35;55849;48.482;2.332;2022-12-18T05:58:27;-0.34;59.42
68842;SHT35;55849;48.482;2.332;2022-12-18T06:01:30;-0.33;59.57
68842;SHT35;55849;48.482;2.332;2022-12-18T06:04:32;-0.34;59.72
68842;SHT35;55849;48.482;2.332;2022-12-18T06:07:33;-0.30;59.87
68842;SHT35;55849;48.482;2.332;2022-12-18T06:10:35;-0.31;59.88
68842;SHT35;55849;48.482;2.332;2022-12-18T06:13:37;-0.30;59.95
68842;SHT35;55849;48.482;2.332;2022-12-18T06:16:40;-0.28;60.07
68842;SHT35;55849;48.482;2.332;2022-12-18T06:19:42;-0.27;60.01
68842;SHT35;55849;48.482;2.332;2022-12-18T06:22:44;-0.27;60.18
68842;SHT35;55849;48.482;2.332;2022-12-18T06:25:45;-0.26;60.36
68842;SHT35;55849;48.482;2.332;2022-12-18T06:28:47;-0.26;60.40
68842;SHT35;55849;48.482;2.332;2022-12-18T06:31:50;-0.26;60.25
68842;SHT35;55849;48.482;2.332;2022-12-18T06:34:52;-0.24;60.28
68842;SHT35;55849;48.482;2.332;2022-12-18T06:37:55;-0.26;60.37
68842;SHT35;55849;48.482;2.332;2022-12-18T06:40:57;-0.23;60.47
68842;SHT35;55849;48.482;2.332;2022-12-18T06:43:58;-0.21;60.36
68842;SHT35;55849;48.482;2.332;2022-12-18T06:47:01;-0.26;60.31
68842;SHT35;55849;48.482;2.332;2022-12-18T06:50:04;-0.24;60.29
68842;SHT35;55849;48.482;2.332;2022-12-18T06:53:05;-0.27;60.04
68842;SHT35;55849;48.482;2.332;2022-12-18T06:56:07;-0.28;59.88
68842;SHT35;55849;48.482;2.332;2022-12-18T06:59:09;-0.27;59.71
68842;SHT35;55849;48.482;2.332;2022-12-18T07:02:12;-0.28;59.77
68842;SHT35;55849;48.482;2.332;2022-12-18T07:05:14;-0.31;59.62
68842;SHT35;55849;48.482;2.332;2022-12-18T07:08:16;-0.28;59.55
68842;SHT35;55849;48.482;2.332;2022-12-18T07:11:18;-0.31;59.43
68842;SHT35;55849;48.482;2.332;2022-12-18T07:14:20;-0.34;59.46
68842;SHT35;55849;48.482;2.332;2022-12-18T07:17:23;-0.35;59.50
68842;SHT35;55849;48.482;2.332;2022-12-18T07:20:25;-0.37;59.52
68842;SHT35;55849;48.482;2.332;2022-12-18T07:23:26;-0.38;59.57
68842;SHT35;55849;48.482;2.332;2022-12-18T07:26:28;-0.40;59.76
68842;SHT35;55849;48.482;2.332;2022-12-18T07:29:30;-0.34;59.79
68842;SHT35;55849;48.482;2.332;2022-12-18T07:32:33;-0.35;60.30
68842;SHT35;55849;48.482;2.332;2022-12-18T07:35:37;-0.30;60.32
68842;SHT35;55849;48.482;2.332;2022-12-18T07:38:39;-0.34;60.43
68842;SHT35;55849;48.482;2.332;2022-12-18T07:41:41;-0.31;60.65
68842;SHT35;55849;48.482;2.332;2022-12-18T07:44:46;-0.30;60.86
68842;SHT35;55849;48.482;2.332;2022-12-18T07:47:49;-0.30;60.80
68842;SHT35;55849;48.482;2.332;2022-12-18T07:50:50;-0.28;60.81
68842;SHT35;55849;48.482;2.332;2022-12-18T07:53:52;-0.26;60.94
68842;SHT35;55849;48.482;2.332;2022-12-18T07:56:54;-0.24;60.94
68842;SHT35;55849;48.482;2.332;2022-12-18T07:59:55;-0.24;61.07
68842;SHT35;55849;48.482;2.332;2022-12-18T08:02:58;-0.20;61.09
68842;SHT35;55849;48.482;2.332;2022-12-18T08:06:00;-0.20;61.38
68842;SHT35;55849;48.482;2.332;2022-12-18T08:09:02;-0.14;61.58
68842;SHT35;55849;48.482;2.332;2022-12-18T08:12:05;-0.13;61.64
68842;SHT35;55849;48.482;2.332;2022-12-18T08:15:07;-0.09;61.81
68842;SHT35;55849;48.482;2.332;2022-12-18T08:18:10;-0.07;61.83
68842;SHT35;55849;48.482;2.332;2022-12-18T08:21:13;-0.05;61.87
68842;SHT35;55849;48.482;2.332;2022-12-18T08:24:15;0.00;62.07
68842;SHT35;55849;48.482;2.332;2022-12-18T08:27:17;0.00;62.20
68842;SHT35;55849;48.482;2.332;2022-12-18T08:30:19;0.02;62.39
68842;SHT35;55849;48.482;2.332;2022-12-18T08:33:22;0.05;62.49
68842;SHT35;55849;48.482;2.332;2022-12-18T08:36:23;0.11;62.52
68842;SHT35;55849;48.482;2.332;2022-12-18T08:39:25;0.14;62.61
68842;SHT35;55849;48.482;2.332;2022-12-18T08:42:27;0.17;62.62
68842;SHT35;55849;48.482;2.332;2022-12-18T08:45:46;0.21;62.88
68842;SHT35;55849;48.482;2.332;2022-12-18T08:48:50;0.22;62.90
68842;SHT35;55849;48.482;2.332;2022-12-18T08:51:54;0.24;62.92
68842;SHT35;55849;48.482;2.332;2022-12-18T08:54:55;0.25;63.26
68842;SHT35;55849;48.482;2.332;2022-12-18T08:57:57;0.30;63.43
68842;SHT35;55849;48.482;2.332;2022-12-18T09:01:00;0.35;63.33
68842;SHT35;55849;48.482;2.332;2022-12-18T09:04:03;0.39;63.62
68842;SHT35;55849;48.482;2.332;2022-12-18T09:07:05;0.39;63.97
68842;SHT35;55849;48.482;2.332;2022-12-18T09:10:07;0.49;64.08
68842;SHT35;55849;48.482;2.332;2022-12-18T09:13:09;0.53;64.05
68842;SHT35;55849;48.482;2.332;2022-12-18T09:16:11;0.59;63.92
68842;SHT35;55849;48.482;2.332;2022-12-18T09:19:14;0.63;63.99
68842;SHT35;55849;48.482;2.332;2022-12-18T09:22:16;0.64;63.82
68842;SHT35;55849;48.482;2.332;2022-12-18T09:25:18;0.64;64.03
68842;SHT35;55849;48.482;2.332;2022-12-18T09:28:19;0.64;64.12
68842;SHT35;55849;48.482;2.332;2022-12-18T09:31:22;0.70;64.27
68842;SHT35;55849;48.482;2.332;2022-12-18T09:34:26;0.69;64.17
68842;SHT35;55849;48.482;2.332;2022-12-18T09:37:27;0.71;64.51
68842;SHT35;55849;48.482;2.332;2022-12-18T09:40:34;0.73;64.53
68842;SHT35;55849;48.482;2.332;2022-12-18T09:43:41;0.78;64.54
68842;SHT35;55849;48.482;2.332;2022-12-18T09:46:47;0.81;64.87
68842;SHT35;55849;48.482;2.332;2022-12-18T09:49:56;0.85;64.74
68842;SHT35;55849;48.482;2.332;2022-12-18T09:53:04;0.89;64.86
68842;SHT35;55849;48.482;2.332;2022-12-18T09:56:10;0.98;64.63
68842;SHT35;55849;48.482;2.332;2022-12-18T09:59:20;1.04;65.07
68842;SHT35;55849;48.482;2.332;2022-12-18T10:02:23;1.08;65.02
68842;SHT35;55849;48.482;2.332;2022-12-18T10:05:33;1.12;65.23
68842;SHT35;55849;48.482;2.332;2022-12-18T10:08:43;1.11;65.25
68842;SHT35;55849;48.482;2.332;2022-12-18T10:11:52;1.19;65.43
68842;SHT35;55849;48.482;2.332;2022-12-18T10:15:01;1.23;65.68
68842;SHT35;55849;48.482;2.332;2022-12-18T10:18:17;1.29;65.55
68842;SHT35;55849;48.482;2.332;2022-12-18T10:21:30;1.33;65.45
68842;SHT35;55849;48.482;2.332;2022-12-18T10:24:37;1.42;66.04
68842;SHT35;55849;48.482;2.332;2022-12-18T10:27:41;1.43;65.69
68842;SHT35;55849;48.482;2.332;2022-12-18T10:30:43;1.46;65.74
68842;SHT35;55849;48.482;2.332;2022-12-18T10:33:45;1.47;65.80
68842;SHT35;55849;48.482;2.332;2022-12-18T10:36:48;1.53;66.04
68842;SHT35;55849;48.482;2.332;2022-12-18T10:40:07;1.57;65.91
68842;SHT35;55849;48.482;2.332;2022-12-18T10:43:12;1.61;66.15
68842;SHT35;55849;48.482;2.332;2022-12-18T10:46:17;1.65;66.12
68842;SHT35;55849;48.482;2.332;2022-12-18T10:49:23;1.71;66.15
68842;SHT35;55849;48.482;2.332;2022-12-18T10:52:27;1.75;66.30
68842;SHT35;55849;48.482;2.332;2022-12-18T10:55:32;1.81;66.11
68842;SHT35;55849;48.482;2.332;2022-12-18T10:58:36;1.85;66.31
68842;SHT35;55849;48.482;2.332;2022-12-18T11:01:47;1.89;66.31
68842;SHT35;55849;48.482;2.332;2022-12-18T11:04:51;1.92;66.29
68842;SHT35;55849;48.482;2.332;2022-12-18T11:07:54;1.95;66.48
68842;SHT35;55849;48.482;2.332;2022-12-18T11:10:56;2.02;66.15
68842;SHT35;55849;48.482;2.332;2022-12-18T11:14:01;2.08;66.30
68842;SHT35;55849;48.482;2.332;2022-12-18T11:17:03;2.12;66.33
68842;SHT35;55849;48.482;2.332;2022-12-18T11:20:14;2.16;66.64
68842;SHT35;55849;48.482;2.332;2022-12-18T11:23:22;2.23;66.17
68842;SHT35;55849;48.482;2.332;2022-12-18T11:26:33;2.30;66.31
68842;SHT35;55849;48.482;2.332;2022-12-18T11:29:38;2.36;66.15
68842;SHT35;55849;48.482;2.332;2022-12-18T11:32:43;2.43;66.28
68842;SHT35;55849;48.482;2.332;2022-12-18T11:35:50;2.47;66.19
68842;SHT35;55849;48.482;2.332;2022-12-18T11:38:55;2.51;66.22
68842;SHT35;55849;48.482;2.332;2022-12-18T11:42:02;2.54;66.26
68842;SHT35;55849;48.482;2.332;2022-12-18T11:45:25;2.61;66.19
68842;SHT35;55849;48.482;2.332;2022-12-18T11:48:30;2.66;66.28
68842;SHT35;55849;48.482;2.332;2022-12-18T11:51:38;2.69;65.85
68842;SHT35;55849;48.482;2.332;2022-12-18T11:54:44;2.75;66.31
68842;SHT35;55849;48.482;2.332;2022-12-18T11:57:52;2.79;66.12
68842;SHT35;55849;48.482;2.332;2022-12-18T12:01:01;2.85;66.18
68842;SHT35;55849;48.482;2.332;2022-12-18T12:04:43;2.89;66.42
68842;SHT35;55849;48.482;2.332;2022-12-18T12:07:53;2.91;66.20
68842;SHT35;55849;48.482;2.332;2022-12-18T12:11:02;2.96;66.48
68842;SHT35;55849;48.482;2.332;2022-12-18T12:14:17;3.00;66.74
68842;SHT35;55849;48.482;2.332;2022-12-18T12:17:34;3.04;66.65
68842;SHT35;55849;48.482;2.332;2022-12-18T12:20:44;3.11;66.79
68842;SHT35;55849;48.482;2.332;2022-12-18T12:23:53;3.19;66.99
68842;SHT35;55849;48.482;2.332;2022-12-18T12:27:06;3.23;66.74
68842;SHT35;55849;48.482;2.332;2022-12-18T12:30:18;3.31;66.90
68842;SHT35;55849;48.482;2.332;2022-12-18T12:33:30;3.38;67.06
68842;SHT35;55849;48.482;2.332;2022-12-18T12:36:46;3.48;66.75
68842;SHT35;55849;48.482;2.332;2022-12-18T12:39:54;3.48;66.78
68842;SHT35;55849;48.482;2.332;2022-12-18T12:42:59;3.54;66.54
68842;SHT35;55849;48.482;2.332;2022-12-18T12:46:17;3.56;66.48
68842;SHT35;55849;48.482;2.332;2022-12-18T12:49:26;3.59;66.40
68842;SHT35;55849;48.482;2.332;2022-12-18T12:52:32;3.62;66.24
68842;SHT35;55849;48.482;2.332;2022-12-18T12:55:35;3.63;66.17
68842;SHT35;55849;48.482;2.332;2022-12-18T12:58:45;3.65;66.38
68842;SHT35;55849;48.482;2.332;2022-12-18T13:01:52;3.66;66.26
68842;SHT35;55849;48.482;2.332;2022-12-18T13:05:00;3.72;66.42
68842;SHT35;55849;48.482;2.332;2022-12-18T13:08:06;3.72;66.69
68842;SHT35;55849;48.482;2.332;2022-12-18T13:11:29;3.71;66.93
68842;SHT35;55849;48.482;2.332;2022-12-18T13:14:51;3.73;66.83
68842;SHT35;55849;48.482;2.332;2022-12-18T13:21:24;3.78;66.96
68842;SHT35;55849;48.482;2.332;2022-12-18T13:24:30;3.79;67.18
68842;SHT35;55849;48.482;2.332;2022-12-18T13:27:51;3.82;66.78
68842;SHT35;55849;48.482;2.332;2022-12-18T13:30:58;3.82;66.87
68842;SHT35;55849;48.482;2.332;2022-12-18T13:34:15;3.87;66.75
68842;SHT35;55849;48.482;2.332;2022-12-18T13:37:43;3.89;66.71
68842;SHT35;55849;48.482;2.332;2022-12-18T13:40:56;3.91;66.96
68842;SHT35;55849;48.482;2.332;2022-12-18T13:44:11;3.93;66.84
68842;SHT35;55849;48.482;2.332;2022-12-18T13:47:26;3.96;67.12
68842;SHT35;55849;48.482;2.332;2022-12-18T13:50:29;3.96;67.12
68842;SHT35;55849;48.482;2.332;2022-12-18T13:53:35;3.96;66.88
68842;SHT35;55849;48.482;2.332;2022-12-18T13:56:44;4.01;66.91
68842;SHT35;55849;48.482;2.332;2022-12-18T13:59:46;4.04;67.33
68842;SHT35;55849;48.482;2.332;2022-12-18T14:02:49;4.08;67.28
68842;SHT35;55849;48.482;2.332;2022-12-18T14:05:58;4.11;67.03
68842;SHT35;55849;48.482;2.332;2022-12-18T14:09:02;4.13;66.88
68842;SHT35;55849;48.482;2.332;2022-12-18T14:12:05;4.14;66.89
68842;SHT35;55849;48.482;2.332;2022-12-18T14:15:30;4.15;67.18
68842;SHT35;55849;48.482;2.332;2022-12-18T14:18:41;4.18;66.92
68842;SHT35;55849;48.482;2.332;2022-12-18T14:21:47;4.20;66.96
68842;SHT35;55849;48.482;2.332;2022-12-18T14:25:10;4.21;66.94
68842;SHT35;55849;48.482;2.332;2022-12-18T14:28:14;4.22;66.97
68842;SHT35;55849;48.482;2.332;2022-12-18T14:31:18;4.28;66.98
68842;SHT35;55849;48.482;2.332;2022-12-18T14:34:26;4.30;66.94
68842;SHT35;55849;48.482;2.332;2022-12-18T14:37:27;4.32;66.91
68842;SHT35;55849;48.482;2.332;2022-12-18T14:40:29;4.34;66.79
68842;SHT35;55849;48.482;2.332;2022-12-18T14:43:32;4.35;67.03
68842;SHT35;55849;48.482;2.332;2022-12-18T14:46:35;4.37;67.04
68842;SHT35;55849;48.482;2.332;2022-12-18T14:49:41;4.39;67.03
68842;SHT35;55849;48.482;2.332;2022-12-18T14:52:43;4.41;66.95
68842;SHT35;55849;48.482;2.332;2022-12-18T14:55:46;4.41;67.05
68842;SHT35;55849;48.482;2.332;2022-12-18T14:58:50;4.42;66.77
68842;SHT35;55849;48.482;2.332;2022-12-18T15:01:59;4.45;66.88
68842;SHT35;55849;48.482;2.332;2022-12-18T15:05:05;4.46;66.92
68842;SHT35;55849;48.482;2.332;2022-12-18T15:08:34;4.48;66.74
68842;SHT35;55849;48.482;2.332;2022-12-18T15:11:45;4.48;66.74
68842;SHT35;55849;48.482;2.332;2022-12-18T15:14:47;4.49;66.86
68842;SHT35;55849;48.482;2.332;2022-12-18T15:17:56;4.49;66.87
68842;SHT35;55849;48.482;2.332;2022-12-18T15:21:07;4.53;66.98
68842;SHT35;55849;48.482;2.332;2022-12-18T15:24:17;4.50;67.14
68842;SHT35;55849;48.482;2.332;2022-12-18T15:27:28;4.55;66.94
68842;SHT35;55849;48.482;2.332;2022-12-18T15:30:30;4.53;67.23
68842;SHT35;55849;48.482;2.332;2022-12-18T15:33:34;4.55;67.23
68842;SHT35;55849;48.482;2.332;2022-12-18T15:36:37;4.53;67.19
68842;SHT35;55849;48.482;2.332;2022-12-18T15:39:39;4.55;67.15
68842;SHT35;55849;48.482;2.332;2022-12-18T15:42:41;4.55;67.40
68842;SHT35;55849;48.482;2.332;2022-12-18T15:46:02;4.55;67.48
68842;SHT35;55849;48.482;2.332;2022-12-18T15:49:05;4.55;67.39
68842;SHT35;55849;48.482;2.332;2022-12-18T15:52:12;4.53;67.64
68842;SHT35;55849;48.482;2.332;2022-12-18T15:55:26;4.55;68.04
68842;SHT35;55849;48.482;2.332;2022-12-18T15:58:41;4.56;67.86
68842;SHT35;55849;48.482;2.332;2022-12-18T16:01:45;4.56;68.26
68842;SHT35;55849;48.482;2.332;2022-12-18T16:04:47;4.58;68.53
68842;SHT35;55849;48.482;2.332;2022-12-18T16:07:50;4.56;68.64
68842;SHT35;55849;48.482;2.332;2022-12-18T16:10:51;4.58;68.93
68842;SHT35;55849;48.482;2.332;2022-12-18T16:13:53;4.56;69.59
68842;SHT35;55849;48.482;2.332;2022-12-18T16:16:56;4.58;69.28
68842;SHT35;55849;48.482;2.332;2022-12-18T16:19:58;4.58;69.26
68842;SHT35;55849;48.482;2.332;2022-12-18T16:23:01;4.58;69.54
68842;SHT35;55849;48.482;2.332;2022-12-18T16:26:02;4.59;69.72
68842;SHT35;55849;48.482;2.332;2022-12-18T16:29:04;4.58;69.82
68842;SHT35;55849;48.482;2.332;2022-12-18T16:32:06;4.58;70.66
68842;SHT35;55849;48.482;2.332;2022-12-18T16:35:10;4.62;70.52
68842;SHT35;55849;48.482;2.332;2022-12-18T16:38:13;4.58;71.02
68842;SHT35;55849;48.482;2.332;2022-12-18T16:41:18;4.60;71.46
68842;SHT35;55849;48.482;2.332;2022-12-18T16:44:35;4.59;71.28
68842;SHT35;55849;48.482;2.332;2022-12-18T16:47:38;4.62;71.47
68842;SHT35;55849;48.482;2.332;2022-12-18T16:50:40;4.60;70.98
68842;SHT35;55849;48.482;2.332;2022-12-18T16:53:43;4.62;71.10
68842;SHT35;55849;48.482;2.332;2022-12-18T16:56:44;4.59;71.99
68842;SHT35;55849;48.482;2.332;2022-12-18T16:59:49;4.58;71.72
68842;SHT35;55849;48.482;2.332;2022-12-18T17:02:51;4.58;72.26
68842;SHT35;55849;48.482;2.332;2022-12-18T17:05:52;4.60;72.21
68842;SHT35;55849;48.482;2.332;2022-12-18T17:08:56;4.59;71.77
68842;SHT35;55849;48.482;2.332;2022-12-18T17:11:58;4.59;72.03
68842;SHT35;55849;48.482;2.332;2022-12-18T17:15:00;4.62;72.00
68842;SHT35;55849;48.482;2.332;2022-12-18T17:18:02;4.62;72.06
68842;SHT35;55849;48.482;2.332;2022-12-18T17:21:05;4.63;73.19
68842;SHT35;55849;48.482;2.332;2022-12-18T17:24:10;4.63;72.75
68842;SHT35;55849;48.482;2.332;2022-12-18T17:27:11;4.66;73.55
68842;SHT35;55849;48.482;2.332;2022-12-18T17:30:13;4.65;72.00
68842;SHT35;55849;48.482;2.332;2022-12-18T17:33:15;4.66;72.59
68842;SHT35;55849;48.482;2.332;2022-12-18T17:36:17;4.67;72.64
68842;SHT35;55849;48.482;2.332;2022-12-18T17:39:21;4.69;72.77
68842;SHT35;55849;48.482;2.332;2022-12-18T17:42:23;4.69;73.18
68842;SHT35;55849;48.482;2.332;2022-12-18T17:45:25;4.70;73.22
68842;SHT35;55849;48.482;2.332;2022-12-18T17:48:27;4.67;73.13
68842;SHT35;55849;48.482;2.332;2022-12-18T17:51:29;4.69;72.63
68842;SHT35;55849;48.482;2.332;2022-12-18T17:54:32;4.70;73.33
68842;SHT35;55849;48.482;2.332;2022-12-18T17:57:35;4.70;72.28
68842;SHT35;55849;48.482;2.332;2022-12-18T18:00:38;4.70;73.59
68842;SHT35;55849;48.482;2.332;2022-12-18T18:03:40;4.70;73.57
68842;SHT35;55849;48.482;2.332;2022-12-18T18:06:41;4.73;73.86
68842;SHT35;55849;48.482;2.332;2022-12-18T18:09:45;4.73;73.66
68842;SHT35;55849;48.482;2.332;2022-12-18T18:12:46;4.77;73.79
68842;SHT35;55849;48.482;2.332;2022-12-18T18:16:07;4.76;73.46
68842;SHT35;55849;48.482;2.332;2022-12-18T18:19:11;4.77;73.30
68842;SHT35;55849;48.482;2.332;2022-12-18T18:22:17;4.75;74.11
68842;SHT35;55849;48.482;2.332;2022-12-18T18:25:20;4.79;73.60
68842;SHT35;55849;48.482;2.332;2022-12-18T18:28:22;4.77;73.97
68842;SHT35;55849;48.482;2.332;2022-12-18T18:31:24;4.79;73.72
68842;SHT35;55849;48.482;2.332;2022-12-18T18:34:27;4.80;74.92
68842;SHT35;55849;48.482;2.332;2022-12-18T18:37:30;4.83;74.22
68842;SHT35;55849;48.482;2.332;2022-12-18T18:40:33;4.81;73.80
68842;SHT35;55849;48.482;2.332;2022-12-18T18:43:34;4.81;74.00
68842;SHT35;55849;48.482;2.332;2022-12-18T18:46:36;4.84;74.37
68842;SHT35;55849;48.482;2.332;2022-12-18T18:49:38;4.83;73.95
68842;SHT35;55849;48.482;2.332;2022-12-18T18:52:39;4.83;75.14
68842;SHT35;55849;48.482;2.332;2022-12-18T18:55:43;4.84;74.48
68842;SHT35;55849;48.482;2.332;2022-12-18T18:58:44;4.85;74.36
68842;SHT35;55849;48.482;2.332;2022-12-18T19:01:47;4.84;74.48
68842;SHT35;55849;48.482;2.332;2022-12-18T19:04:49;4.87;74.86
68842;SHT35;55849;48.482;2.332;2022-12-18T19:07:51;4.85;74.32
68842;SHT35;55849;48.482;2.332;2022-12-18T19:10:56;4.88;74.52
68842;SHT35;55849;48.482;2.332;2022-12-18T19:13:58;4.88;73.92
68842;SHT35;55849;48.482;2.332;2022-12-18T19:16:59;4.90;74.49
68842;SHT35;55849;48.482;2.332;2022-12-18T19:20:01;4.90;74.48
68842;SHT35;55849;48.482;2.332;2022-12-18T19:23:02;4.94;74.75
68842;SHT35;55849;48.482;2.332;2022-12-18T19:26:07;4.94;74.91
68842;SHT35;55849;48.482;2.332;2022-12-18T19:29:10;4.95;74.80
68842;SHT35;55849;48.482;2.332;2022-12-18T19:32:13;4.95;74.81
68842;SHT35;55849;48.482;2.332;2022-12-18T19:35:15;5.00;75.11
68842;SHT35;55849;48.482;2.332;2022-12-18T19:38:17;4.95;74.93
68842;SHT35;55849;48.482;2.332;2022-12-18T19:41:21;5.01;75.21
68842;SHT35;55849;48.482;2.332;2022-12-18T19:44:22;5.01;74.78
68842;SHT35;55849;48.482;2.332;2022-12-18T19:47:24;5.00;74.93